createdAt,value
2023-05-05T00:04:05.592Z,101010.23
2023-05-05T00:09:08.514Z,101016.31
2023-05-05T00:14:11.488Z,101022.05
2023-05-05T00:19:14.277Z,101024.52
2023-05-05T00:24:17.096Z,101017.05
2023-05-05T00:29:19.890Z,101016.54
2023-05-05T00:34:22.901Z,101009.09
2023-05-05T00:39:25.698Z,101005.43
2023-05-05T00:44:37.968Z,101008.56
2023-05-05T00:49:41.245Z,101005.11
2023-05-05T00:54:44.134Z,101001.84
2023-05-05T00:59:49.367Z,100997.03
2023-05-05T01:04:52.818Z,100991.66
2023-05-05T01:10:18.001Z,100993.76
2023-05-05T01:15:31.786Z,100995.67
2023-05-05T01:20:50.408Z,100995.34
2023-05-05T01:26:20.091Z,100992.40
2023-05-05T01:31:38.974Z,100990.33
2023-05-05T01:36:46.157Z,100994.66
2023-05-05T01:41:54.257Z,100993.10
2023-05-05T01:47:01.350Z,100994.32
2023-05-05T01:52:06.150Z,100990.17
2023-05-05T01:57:11.335Z,100993.48
2023-05-05T02:02:16.251Z,100992.45
2023-05-05T02:07:21.547Z,100990.38
2023-05-05T02:12:25.080Z,100984.99
2023-05-05T02:17:31.264Z,100980.66
2023-05-05T02:22:34.204Z,100988.29
2023-05-05T02:27:40.974Z,100995.05
2023-05-05T02:33:00.223Z,100993.84
2023-05-05T02:38:05.732Z,100997.66
2023-05-05T02:43:11.962Z,101000.42
2023-05-05T02:48:15.134Z,101010.84
2023-05-05T02:53:22.347Z,101010.30
2023-05-05T02:58:34.870Z,101015.84
2023-05-05T03:03:50.413Z,101014.98
2023-05-05T03:09:03.210Z,101013.59
2023-05-05T03:14:10.094Z,101012.88
2023-05-05T03:19:14.516Z,101022.23
2023-05-05T03:24:19.016Z,101028.13
2023-05-05T03:29:21.982Z,101033.00
2023-05-05T03:34:25.763Z,101031.81
2023-05-05T03:39:28.535Z,101034.42
2023-05-05T03:44:31.361Z,101032.50
2023-05-05T03:49:34.135Z,101039.05
2023-05-05T03:54:38.347Z,101042.86
2023-05-05T03:59:41.406Z,101043.73
2023-05-05T04:04:44.965Z,101053.27
2023-05-05T04:09:47.726Z,101053.98
2023-05-05T04:14:50.484Z,101057.80
2023-05-05T04:19:53.255Z,101064.05
2023-05-05T04:24:56.036Z,101066.12
2023-05-05T04:29:58.881Z,101070.64
2023-05-05T04:35:01.706Z,101076.56
2023-05-05T04:40:04.914Z,101077.25
2023-05-05T04:45:10.357Z,101080.04
2023-05-05T04:50:13.939Z,101085.59
2023-05-05T04:55:16.712Z,101089.56
2023-05-05T05:00:19.526Z,101095.11
2023-05-05T05:05:22.512Z,101100.14
2023-05-05T05:10:25.740Z,101105.32
2023-05-05T05:15:28.590Z,101111.18
2023-05-05T05:20:31.762Z,101115.94
2023-05-05T05:25:35.983Z,101120.35
2023-05-05T05:30:38.951Z,101120.66
2023-05-05T05:35:42.923Z,101135.37
2023-05-05T05:40:45.711Z,101137.77
2023-05-05T05:45:48.549Z,101147.21
2023-05-05T05:50:51.469Z,101150.36
2023-05-05T05:55:54.182Z,101162.17
2023-05-05T06:00:59.162Z,101172.05
2023-05-05T06:06:02.178Z,101171.47
2023-05-05T06:11:05.038Z,101179.21
2023-05-05T06:16:08.410Z,101189.47
2023-05-05T06:21:11.450Z,101199.77
2023-05-05T06:26:14.494Z,101209.65
2023-05-05T06:31:17.573Z,101183.06
2023-05-05T06:36:20.514Z,101163.45
2023-05-05T06:41:23.269Z,101146.15
2023-05-05T06:46:28.336Z,101130.75
2023-05-05T06:51:31.846Z,101128.93
2023-05-05T06:56:34.812Z,101127.80
2023-05-05T07:01:37.517Z,101131.35
2023-05-05T07:06:40.404Z,101126.84
2023-05-05T07:11:52.006Z,101121.63
2023-05-05T07:16:54.829Z,101122.76
2023-05-05T07:22:03.588Z,101123.67
2023-05-05T07:32:24.306Z,101129.84
2023-05-05T07:37:36.504Z,101131.20
2023-05-05T07:42:39.340Z,101142.31
2023-05-05T07:47:42.281Z,101135.85
2023-05-05T07:52:51.824Z,101142.90
2023-05-05T07:57:59.098Z,101137.55
2023-05-05T08:03:01.972Z,101137.95
2023-05-05T08:08:07.564Z,101143.29
2023-05-05T08:13:10.335Z,101148.73
2023-05-05T08:18:14.938Z,101154.17
2023-05-05T08:23:17.739Z,101157.02
2023-05-05T08:28:20.531Z,101149.96
2023-05-05T08:33:23.273Z,101155.44
2023-05-05T08:38:27.960Z,101153.91
2023-05-05T08:43:31.034Z,101159.86
2023-05-05T08:48:35.745Z,101165.14
2023-05-05T08:53:51.755Z,101158.73
2023-05-05T08:58:56.455Z,101163.04
2023-05-05T09:04:04.894Z,101164.33
2023-05-05T09:09:08.544Z,101170.27
2023-05-05T09:19:31.736Z,101177.39
2023-05-05T09:24:34.610Z,101186.71
2023-05-05T09:29:37.935Z,101177.36
2023-05-05T09:34:41.283Z,101183.76
2023-05-05T09:39:54.767Z,101183.54
2023-05-05T09:44:59.782Z,101197.55
2023-05-05T09:50:11.447Z,101185.66
2023-05-05T09:55:19.023Z,101178.59
2023-05-05T10:00:41.804Z,101182.99
2023-05-05T10:05:55.481Z,101185.38
2023-05-05T10:11:08.072Z,101180.14
2023-05-05T10:16:14.748Z,101179.04
2023-05-05T10:21:25.674Z,101185.32
2023-05-05T10:26:34.892Z,101184.16
2023-05-05T10:31:47.205Z,101178.33
2023-05-05T10:36:51.753Z,101181.39
2023-05-05T10:41:55.882Z,101176.48
2023-05-05T10:47:00.496Z,101174.00
2023-05-05T10:52:06.987Z,101174.98
2023-05-05T10:57:12.129Z,101183.92
2023-05-05T11:02:29.605Z,101172.80
2023-05-05T11:07:50.124Z,101165.83
2023-05-05T11:12:58.333Z,101168.34
2023-05-05T11:18:05.775Z,101165.27
2023-05-05T11:23:29.977Z,101157.54
2023-05-05T11:28:32.883Z,101158.38
2023-05-05T11:33:37.763Z,101155.88
2023-05-05T11:38:55.969Z,101152.48
2023-05-05T11:44:11.905Z,101147.05
2023-05-05T11:49:29.066Z,101143.76
2023-05-05T11:54:32.945Z,101143.23
2023-05-05T11:59:49.650Z,101149.76
2023-05-05T12:04:52.994Z,101140.88
2023-05-05T12:09:56.169Z,101139.00
2023-05-05T12:14:59.076Z,101149.09
2023-05-05T12:20:01.933Z,101143.88
2023-05-05T12:25:07.013Z,101131.94
2023-05-05T12:30:12.657Z,101140.33
2023-05-05T12:35:16.185Z,101139.45
2023-05-05T12:40:48.551Z,101127.64
2023-05-05T12:46:12.224Z,101121.56
2023-05-05T12:51:16.892Z,101129.05
2023-05-05T12:56:38.170Z,101128.66
2023-05-05T13:01:58.014Z,101132.36
2023-05-05T13:07:14.910Z,101136.37
2023-05-05T13:12:18.629Z,101127.45
2023-05-05T13:17:21.408Z,101122.40
2023-05-05T13:22:24.213Z,101117.14
2023-05-05T13:27:27.319Z,101108.39
2023-05-05T13:32:30.174Z,101104.85
2023-05-05T13:37:33.010Z,101108.56
2023-05-05T13:42:35.769Z,101098.14
2023-05-05T13:47:39.087Z,101094.70
2023-05-05T13:52:42.058Z,101097.14
2023-05-05T13:57:44.956Z,101095.23
2023-05-05T14:02:48.296Z,101092.90
2023-05-05T14:07:51.363Z,101088.75
2023-05-05T14:12:54.218Z,101090.32
2023-05-05T14:17:57.199Z,101087.02
2023-05-05T14:23:00.534Z,101081.52
2023-05-05T14:28:04.172Z,101080.49
2023-05-05T14:33:08.271Z,101079.98
2023-05-05T14:38:11.283Z,101079.65
2023-05-05T14:43:16.323Z,101083.23
2023-05-05T14:48:22.256Z,101087.23
2023-05-05T14:53:25.279Z,101083.27
2023-05-05T14:58:28.130Z,101086.92
2023-05-05T15:03:31.733Z,101084.23
2023-05-05T15:08:34.952Z,101086.04
2023-05-05T15:13:41.694Z,101083.64
2023-05-05T15:18:44.450Z,101087.52
2023-05-05T15:23:47.195Z,101085.67
2023-05-05T15:28:50.467Z,101082.33
2023-05-05T15:33:53.376Z,101083.09
2023-05-05T15:38:56.817Z,101086.42
2023-05-05T15:44:00.793Z,101082.88
2023-05-05T15:49:03.720Z,101083.11
2023-05-05T15:54:07.845Z,101080.48
2023-05-05T15:59:10.613Z,101082.45
2023-05-05T16:04:13.834Z,101069.39
2023-05-05T16:09:17.709Z,101071.94
2023-05-05T16:14:20.812Z,101073.40
2023-05-05T16:19:30.883Z,101071.61
2023-05-05T16:24:33.738Z,101062.55
2023-05-05T16:29:36.798Z,101058.65
2023-05-05T16:34:39.733Z,101059.88
2023-05-05T16:39:42.608Z,101061.83
2023-05-05T16:44:45.389Z,101064.47
2023-05-05T16:49:48.223Z,101063.27
2023-05-05T16:54:56.110Z,101066.23
2023-05-05T16:59:59.404Z,101073.97
2023-05-05T17:05:02.736Z,101075.95
2023-05-05T17:10:06.902Z,101074.61
2023-05-05T17:15:10.261Z,101075.80
2023-05-05T17:20:13.399Z,101082.58
2023-05-05T17:25:19.187Z,101084.30
2023-05-05T17:30:22.189Z,101092.16
2023-05-05T17:35:25.046Z,101096.30
2023-05-05T17:40:28.958Z,101098.68
2023-05-05T17:45:32.211Z,101100.55
2023-05-05T17:50:35.023Z,101098.77
2023-05-05T17:55:37.981Z,101107.09
2023-05-05T18:00:40.873Z,101108.95
2023-05-05T18:05:43.747Z,101117.42
2023-05-05T18:10:46.709Z,101119.67
2023-05-05T18:15:49.487Z,101123.27
2023-05-05T18:20:52.335Z,101129.63
2023-05-05T18:25:55.153Z,101129.53
2023-05-05T18:30:57.923Z,101132.59
2023-05-05T18:36:03.802Z,101137.52
2023-05-05T18:41:06.745Z,101145.75
2023-05-05T18:46:09.497Z,101145.46
2023-05-05T18:51:12.297Z,101151.09
2023-05-05T18:56:15.047Z,101153.59
2023-05-05T19:01:18.019Z,101158.66
2023-05-05T19:06:20.945Z,101165.31
2023-05-05T19:11:24.087Z,101167.80
2023-05-05T19:16:27.880Z,101166.75
2023-05-05T19:21:32.035Z,101170.76
2023-05-05T19:26:34.817Z,101171.48
2023-05-05T19:31:37.551Z,101164.00
2023-05-05T19:36:40.334Z,101163.65
2023-05-05T19:41:43.099Z,101168.66
2023-05-05T19:46:48.011Z,101166.94
2023-05-05T19:51:52.167Z,101174.89
2023-05-05T19:56:57.176Z,101180.23
2023-05-05T20:02:01.907Z,101177.77
2023-05-05T20:07:04.707Z,101181.05
2023-05-05T20:12:07.753Z,101183.27
2023-05-05T20:17:12.060Z,101182.54
2023-05-05T20:22:14.809Z,101183.35
2023-05-05T20:27:17.597Z,101188.50
2023-05-05T20:32:22.242Z,101190.54
2023-05-05T20:37:27.174Z,101187.90
2023-05-05T20:42:31.253Z,101188.38
2023-05-05T20:47:35.754Z,101197.69
2023-05-05T20:52:38.718Z,101191.40
2023-05-05T20:57:41.495Z,101194.98
2023-05-05T21:02:44.488Z,101186.95
2023-05-05T21:07:47.537Z,101188.27
2023-05-05T21:12:50.473Z,101192.86
2023-05-05T21:17:55.190Z,101195.19
2023-05-05T21:22:57.997Z,101198.55
2023-05-05T21:28:00.767Z,101189.83
2023-05-05T21:33:03.765Z,101188.70
2023-05-05T21:38:06.720Z,101188.78
2023-05-05T21:43:09.532Z,101189.91
2023-05-05T21:48:12.339Z,101189.83
2023-05-05T21:53:15.332Z,101186.63
2023-05-05T21:58:18.073Z,101191.75
2023-05-05T22:03:21.360Z,101190.69
2023-05-05T22:08:24.503Z,101188.04
2023-05-05T22:13:27.312Z,101189.35
2023-05-05T22:18:30.128Z,101189.27
2023-05-05T22:23:32.933Z,101187.30
2023-05-05T22:28:36.222Z,101187.37
2023-05-05T22:33:39.036Z,101188.83
2023-05-05T22:38:42.369Z,101190.33
2023-05-05T22:43:45.283Z,101189.06
2023-05-05T22:48:49.134Z,101191.40
2023-05-05T22:53:51.975Z,101190.46
2023-05-05T22:58:54.802Z,101189.35
2023-05-05T23:03:57.600Z,101194.11
2023-05-05T23:09:02.743Z,101194.54
2023-05-05T23:14:05.535Z,101192.02
2023-05-05T23:19:08.312Z,101192.43
2023-05-05T23:24:11.138Z,101186.86
2023-05-05T23:29:13.931Z,101183.15
2023-05-05T23:34:16.876Z,101184.80
2023-05-05T23:39:19.698Z,101177.48
2023-05-05T23:44:22.466Z,101175.52
2023-05-05T23:49:26.469Z,101180.13
2023-05-05T23:54:29.495Z,101178.86
2023-05-05T23:59:32.291Z,101175.00
